Monroe, NE (68647)

23:54 CDT le 29 août 2016 (GMT -0500)
KNEMONRO3 | | Change Station

Alt. 1525 ft 41.47 °N, 97.62 °W | Updated 4 minutes ago

Scattered Clouds
Nuages épars
68.5 ° F
Paraît 68.5 ° F
N
1.3
Vent Variable Vent de ENE
Gusts 5.4 mph

Aujourd'hui
Haut(e) -- | Bas -- ° F
--% Risque de précip.
Hier
Haut(e) -- | Bas -- ° F
Precip. -- pouce
Pression 30.23 pouce
Visibilité 8.0 Miles terrestres
Nuages Nuages épars 700 ft
Point de rosée 68 ° F
Humidité 99%
Précipitations 0.00 pouce
Profondeur de la couche neigeuse Non disponible.
6:54 AM 8:07 PM
Lune descendante, 5% visible
METAR KOLU 300435Z AUTO 07006KT 8SM SCT007 20/16 A3023 RMK AO2 PWINO FZRANO RVRNO
Pression 30.23 pouce
Visibilité 8.0 Miles terrestres
Nuages Nuages épars 700 ft
Point de rosée 68 ° F
Humidité 99%
Précipitations 0.00 pouce
Profondeur de la couche neigeuse Non disponible.
6:54 AM 8:07 PM
Lune descendante, 5% visible
METAR KOLU 300435Z AUTO 07006KT 8SM SCT007 20/16 A3023 RMK AO2 PWINO FZRANO RVRNO

10-Day Weather Forecast

Almanac

Astronomie

Aug. 29, 2016 Lever Coucher
Temps réel
Crépuscule civil
Crépuscule nautique
Crépuscule astronomique
Lune
Durée de lumière visible
Longueur du jour
Tomorrow will be .
, % of the Moon is Illuminated

Extrêmes aujourd'hui

State Highs State Lows

Community

WunderPhotos

Upload Photos

1,935,791 Photos téléchargées !

WunderBlog® & News

Nearby

Qualité de l'air

  Qualité de l'air Indice de la qualité de l'air Polluant
Not available.

Épaisseur de neige

Station Depth Altitude

Activité sismique

Ville Distance Mag. Time & Date
Minimum magnitude displayed is 2.5.

Températures des eaux côtières

Lieu Température

Stations

Stations météo à proximité

Emplacement de la station Température Refroidissement éolien Point de rosée Humidité Vent Precip. Alt. Mise à jour Type
                   

Watches & Warnings

There are currently no watches in effect.